<?xml version='1.0' encoding='UTF-8'?><gpx version="1.1" creator="JPX - https://github.com/jenetics/jpx" xmlns="http://www.topografix.com/GPX/1/1"><trk><trkseg><trkpt lat="45.97131053225322" lon="11.412292102665424"><ele>1670.0000000000002</ele><time>2026-05-03T06:37:00.999Z</time></trkpt><trkpt lat="45.97137396859801" lon="11.412282159418208"><ele>1670.0</ele><time>2026-05-03T06:37:08.999Z</time></trkpt><trkpt lat="45.97144352155249" lon="11.412254344359074"><ele>1670.0</ele><time>2026-05-03T06:37:16.999Z</time></trkpt><trkpt lat="45.9715051249826" lon="11.412235431851538"><ele>1670.0</ele><time>2026-05-03T06:37:22.999Z</time></trkpt><trkpt lat="45.971571982564264" lon="11.412216537405888"><ele>1670.0</ele><time>2026-05-03T06:37:29.999Z</time></trkpt><trkpt lat="45.97164450276592" lon="11.412194758391143"><ele>1670.0000000000002</ele><time>2026-05-03T06:37:36.999Z</time></trkpt><trkpt lat="45.97171069601668" lon="11.412203220888793"><ele>1670.0</ele><time>2026-05-03T06:37:43.999Z</time></trkpt><trkpt lat="45.97177696589196" lon="11.412207898239872"><ele>1673.7142857142858</ele><time>2026-05-03T06:37:50.999Z</time></trkpt><trkpt lat="45.971841626564895" lon="11.412215898246085"><ele>1677.4285714285716</ele><time>2026-05-03T06:37:57.999Z</time></trkpt><trkpt lat="45.9719021405687" lon="11.412243617994166"><ele>1681.1428571428573</ele><time>2026-05-03T06:38:05.999Z</time></trkpt><trkpt lat="45.971953964420415" lon="11.41229723434707"><ele>1684.857142857143</ele><time>2026-05-03T06:38:14.999Z</time></trkpt><trkpt lat="45.972019006768214" lon="11.41232938221223"><ele>1688.5714285714284</ele><time>2026-05-03T06:38:25.999Z</time></trkpt><trkpt lat="45.972076885997915" lon="11.412387823179785"><ele>1692.2857142857144</ele><time>2026-05-03T06:38:38.999Z</time></trkpt><trkpt lat="45.97213475990388" lon="11.412339050479613"><ele>1696.0</ele><time>2026-05-03T06:38:48.999Z</time></trkpt><trkpt lat="45.97220026094346" lon="11.412336394304583"><ele>1696.0</ele><time>2026-05-03T06:38:57.999Z</time></trkpt><trkpt lat="45.972267618467626" lon="11.412311008743314"><ele>1696.0</ele><time>2026-05-03T06:39:07.999Z</time></trkpt><trkpt lat="45.972330099806165" lon="11.412347924936475"><ele>1696.0</ele><time>2026-05-03T06:39:19Z</time></trkpt><trkpt lat="45.97239795131579" lon="11.412361286158413"><ele>1696.0</ele><time>2026-05-03T06:39:32Z</time></trkpt><trkpt lat="45.97246196723389" lon="11.412362457839837"><ele>1696.0</ele><time>2026-05-03T06:39:45Z</time></trkpt><trkpt lat="45.97252802922339" lon="11.412370401676704"><ele>1696.0</ele><time>2026-05-03T06:40:01.999Z</time></trkpt><trkpt lat="45.97259699567917" lon="11.412375383374888"><ele>1696.0</ele><time>2026-05-03T06:40:12.999Z</time></trkpt><trkpt lat="45.972662034053805" lon="11.412380412568309"><ele>1699.7142857142858</ele><time>2026-05-03T06:40:30.999Z</time></trkpt><trkpt lat="45.97269506770299" lon="11.41246239346302"><ele>1703.4285714285713</ele><time>2026-05-03T06:40:42.999Z</time></trkpt><trkpt lat="45.972746188112566" lon="11.412389716359838"><ele>1707.142857142857</ele><time>2026-05-03T06:40:53.999Z</time></trkpt><trkpt lat="45.97278694776751" lon="11.412469357722049"><ele>1710.857142857143</ele><time>2026-05-03T06:41:04Z</time></trkpt><trkpt lat="45.972840523393856" lon="11.412533922088418"><ele>1714.5714285714284</ele><time>2026-05-03T06:41:16Z</time></trkpt><trkpt lat="45.97292289971407" lon="11.412560756914758"><ele>1718.2857142857142</ele><time>2026-05-03T06:41:35Z</time></trkpt><trkpt lat="45.972985490081015" lon="11.412596310028572"><ele>1722.0</ele><time>2026-05-03T06:41:44Z</time></trkpt><trkpt lat="45.97305613523648" lon="11.412601347675432"><ele>1722.0</ele><time>2026-05-03T06:41:53Z</time></trkpt><trkpt lat="45.973125217953985" lon="11.412609953117709"><ele>1722.0</ele><time>2026-05-03T06:42:03Z</time></trkpt><trkpt lat="45.97316157888442" lon="11.412690712897408"><ele>1722.0</ele><time>2026-05-03T06:42:25Z</time></trkpt><trkpt lat="45.973220052812515" lon="11.412727397368814"><ele>1722.0</ele><time>2026-05-03T06:42:34Z</time></trkpt><trkpt lat="45.97324907974277" lon="11.412816295293172"><ele>1722.0</ele><time>2026-05-03T06:42:43Z</time></trkpt><trkpt lat="45.973289058881015" lon="11.412889720435752"><ele>1722.0</ele><time>2026-05-03T06:42:49.999Z</time></trkpt><trkpt lat="45.973324694393234" lon="11.412964845804085"><ele>1722.0</ele><time>2026-05-03T06:42:56.999Z</time></trkpt><trkpt lat="45.97334850682092" lon="11.413061119089457"><ele>1724.4285714285713</ele><time>2026-05-03T06:43:04.999Z</time></trkpt><trkpt lat="45.97338216471823" lon="11.41314346980173"><ele>1726.857142857143</ele><time>2026-05-03T06:43:12Z</time></trkpt><trkpt lat="45.973409615827" lon="11.41323616398454"><ele>1729.2857142857142</ele><time>2026-05-03T06:43:19Z</time></trkpt><trkpt lat="45.97345141250431" lon="11.413314259126464"><ele>1731.7142857142858</ele><time>2026-05-03T06:43:27Z</time></trkpt><trkpt lat="45.973478440813125" lon="11.413404128149601"><ele>1734.142857142857</ele><time>2026-05-03T06:43:35Z</time></trkpt><trkpt lat="45.97352092439637" lon="11.413479220365685"><ele>1736.5714285714284</ele><time>2026-05-03T06:43:42Z</time></trkpt><trkpt lat="45.97358425072398" lon="11.41351910492942"><ele>1739.0</ele><time>2026-05-03T06:43:52Z</time></trkpt><trkpt lat="45.973643233716906" lon="11.413568025057767"><ele>1738.9999999999998</ele><time>2026-05-03T06:44:01Z</time></trkpt><trkpt lat="45.97370167557414" lon="11.413621701681555"><ele>1739.0</ele><time>2026-05-03T06:44:08Z</time></trkpt><trkpt lat="45.97375286105168" lon="11.41369455374299"><ele>1739.0</ele><time>2026-05-03T06:44:17Z</time></trkpt><trkpt lat="45.97378670361317" lon="11.413775865708196"><ele>1739.0</ele><time>2026-05-03T06:44:25Z</time></trkpt><trkpt lat="45.973805256689324" lon="11.413872447095818"><ele>1739.0</ele><time>2026-05-03T06:44:33Z</time></trkpt><trkpt lat="45.97384063660163" lon="11.41395360601788"><ele>1738.9999999999998</ele><time>2026-05-03T06:44:42Z</time></trkpt><trkpt lat="45.973887279952805" lon="11.414022375319044"><ele>1739.0</ele><time>2026-05-03T06:44:49Z</time></trkpt><trkpt lat="45.97393516801587" lon="11.414086135558588"><ele>1740.9999999999998</ele><time>2026-05-03T06:44:57Z</time></trkpt><trkpt lat="45.9739912509558" lon="11.41413293921151"><ele>1743.0</ele><time>2026-05-03T06:45:04Z</time></trkpt><trkpt lat="45.97405302543793" lon="11.414170716099822"><ele>1745.0</ele><time>2026-05-03T06:45:12Z</time></trkpt><trkpt lat="45.9741213923765" lon="11.414200020066477"><ele>1747.0</ele><time>2026-05-03T06:45:21Z</time></trkpt><trkpt lat="45.97416780388153" lon="11.414263447039975"><ele>1749.0</ele><time>2026-05-03T06:45:28Z</time></trkpt><trkpt lat="45.97423773433755" lon="11.414260846694898"><ele>1750.9999999999998</ele><time>2026-05-03T06:45:38Z</time></trkpt><trkpt lat="45.97430368164826" lon="11.414305761128553"><ele>1753.0</ele><time>2026-05-03T06:45:46Z</time></trkpt><trkpt lat="45.97436019990401" lon="11.41435131343708"><ele>1754.142857142857</ele><time>2026-05-03T06:45:52Z</time></trkpt><trkpt lat="45.97441892273089" lon="11.414414895639185"><ele>1755.2857142857142</ele><time>2026-05-03T06:46:00Z</time></trkpt><trkpt lat="45.974483041789" lon="11.414450596921858"><ele>1756.4285714285716</ele><time>2026-05-03T06:46:08Z</time></trkpt><trkpt lat="45.9745387043548" lon="11.41449925698367"><ele>1757.5714285714284</ele><time>2026-05-03T06:46:15Z</time></trkpt><trkpt lat="45.97458916607388" lon="11.414558475224034"><ele>1758.7142857142858</ele><time>2026-05-03T06:46:21Z</time></trkpt><trkpt lat="45.97465230909802" lon="11.414600269611906"><ele>1759.857142857143</ele><time>2026-05-03T06:46:29Z</time></trkpt><trkpt lat="45.97461569317716" lon="11.414687827035475"><ele>1761.0</ele><time>2026-05-03T06:46:37Z</time></trkpt><trkpt lat="45.97464887177604" lon="11.414765472874421"><ele>1763.0000000000002</ele><time>2026-05-03T06:46:44Z</time></trkpt><trkpt lat="45.97467197070645" lon="11.4148502799279"><ele>1765.0</ele><time>2026-05-03T06:46:51Z</time></trkpt><trkpt lat="45.974723929013756" lon="11.414911053219775"><ele>1767.0</ele><time>2026-05-03T06:46:58Z</time></trkpt><trkpt lat="45.97477938352324" lon="11.414976955934984"><ele>1769.0</ele><time>2026-05-03T06:47:06Z</time></trkpt><trkpt lat="45.974832707611135" lon="11.415038352755955"><ele>1771.0</ele><time>2026-05-03T06:47:13Z</time></trkpt><trkpt lat="45.97485839555988" lon="11.415128612389047"><ele>1773.0000000000002</ele><time>2026-05-03T06:47:18.999Z</time></trkpt><trkpt lat="45.97492030810546" lon="11.415200904554784"><ele>1775.0</ele><time>2026-05-03T06:47:27Z</time></trkpt><trkpt lat="45.97498211381739" lon="11.415246516468288"><ele>1776.4285714285716</ele><time>2026-05-03T06:47:55Z</time></trkpt><trkpt lat="45.97502371428738" lon="11.415321033071745"><ele>1777.857142857143</ele><time>2026-05-03T06:49:34.999Z</time></trkpt><trkpt lat="45.9750764901658" lon="11.415371423662192"><ele>1779.2857142857142</ele><time>2026-05-03T06:49:40.999Z</time></trkpt><trkpt lat="45.975137837455065" lon="11.415438632740871"><ele>1780.7142857142858</ele><time>2026-05-03T06:49:46.999Z</time></trkpt><trkpt lat="45.9751973873338" lon="11.415481252209478"><ele>1782.142857142857</ele><time>2026-05-03T06:49:52.999Z</time></trkpt><trkpt lat="45.97526050995713" lon="11.415492401753731"><ele>1783.5714285714287</ele><time>2026-05-03T06:49:58.999Z</time></trkpt><trkpt lat="45.97533276920055" lon="11.41548627844676"><ele>1785.0</ele><time>2026-05-03T06:50:04.999Z</time></trkpt><trkpt lat="45.975401005915245" lon="11.415483058019575"><ele>1787.4285714285716</ele><time>2026-05-03T06:50:10.999Z</time></trkpt><trkpt lat="45.9754706395837" lon="11.415496913389724"><ele>1789.857142857143</ele><time>2026-05-03T06:50:16.999Z</time></trkpt><trkpt lat="45.9755384532222" lon="11.415510936474906"><ele>1792.2857142857142</ele><time>2026-05-03T06:50:24.999Z</time></trkpt><trkpt lat="45.97561741094403" lon="11.415507047168491"><ele>1794.7142857142858</ele><time>2026-05-03T06:50:31.999Z</time></trkpt><trkpt lat="45.97568205311139" lon="11.415495429154497"><ele>1797.1428571428573</ele><time>2026-05-03T06:50:55.999Z</time></trkpt><trkpt lat="45.97574430230899" lon="11.415522891935687"><ele>1799.5714285714287</ele><time>2026-05-03T06:51:01.999Z</time></trkpt><trkpt lat="45.975809486134" lon="11.415504235038943"><ele>1802.0</ele><time>2026-05-03T06:51:08.999Z</time></trkpt><trkpt lat="45.97585897666263" lon="11.415575888375137"><ele>1803.7142857142858</ele><time>2026-05-03T06:51:14.999Z</time></trkpt><trkpt lat="45.975922621693066" lon="11.415602772685745"><ele>1805.4285714285716</ele><time>2026-05-03T06:51:21.999Z</time></trkpt><trkpt lat="45.975988263070064" lon="11.415649295397241"><ele>1807.1428571428573</ele><time>2026-05-03T06:51:29.999Z</time></trkpt><trkpt lat="45.97604923004437" lon="11.41568455941701"><ele>1808.8571428571431</ele><time>2026-05-03T06:51:38.999Z</time></trkpt><trkpt lat="45.97612085479476" lon="11.41569640677028"><ele>1810.5714285714287</ele><time>2026-05-03T06:51:45.999Z</time></trkpt><trkpt lat="45.976183506088994" lon="11.415676099610954"><ele>1812.2857142857147</ele><time>2026-05-03T06:51:54.999Z</time></trkpt><trkpt lat="45.976248931958395" lon="11.415725411458887"><ele>1814.0000000000002</ele><time>2026-05-03T06:52:02.999Z</time></trkpt><trkpt lat="45.97631386774724" lon="11.415750166780036"><ele>1814.0000000000002</ele><time>2026-05-03T06:52:09.999Z</time></trkpt><trkpt lat="45.9763821100664" lon="11.415767702800753"><ele>1814.0</ele><time>2026-05-03T06:52:18.999Z</time></trkpt><trkpt lat="45.976447543812476" lon="11.415763984776884"><ele>1814.0000000000002</ele><time>2026-05-03T06:52:26.999Z</time></trkpt><trkpt lat="45.97651087634787" lon="11.415742443639738"><ele>1814.0000000000002</ele><time>2026-05-03T06:52:32.999Z</time></trkpt><trkpt lat="45.97657530293675" lon="11.415745734145245"><ele>1814.0</ele><time>2026-05-03T06:52:40.999Z</time></trkpt><trkpt lat="45.97664756199104" lon="11.41573689761511"><ele>1814.0000000000002</ele><time>2026-05-03T06:52:48.999Z</time></trkpt><trkpt lat="45.97671639208038" lon="11.415754412686539"><ele>1814.0000000000002</ele><time>2026-05-03T06:52:56.999Z</time></trkpt><trkpt lat="45.976786707417915" lon="11.415757648487608"><ele>1814.8571428571431</ele><time>2026-05-03T06:53:03.999Z</time></trkpt><trkpt lat="45.97685688842517" lon="11.415762559888107"><ele>1815.7142857142858</ele><time>2026-05-03T06:53:11.999Z</time></trkpt><trkpt lat="45.976920689859845" lon="11.415737709200975"><ele>1816.5714285714287</ele><time>2026-05-03T06:53:19.999Z</time></trkpt><trkpt lat="45.97698777812397" lon="11.41576116288658"><ele>1817.4285714285716</ele><time>2026-05-03T06:53:26.999Z</time></trkpt><trkpt lat="45.97705156650299" lon="11.415794614440115"><ele>1818.2857142857142</ele><time>2026-05-03T06:53:33.999Z</time></trkpt><trkpt lat="45.97711934884971" lon="11.41580915233993"><ele>1819.142857142857</ele><time>2026-05-03T06:53:42Z</time></trkpt><trkpt lat="45.97718473616573" lon="11.415814529020405"><ele>1820.0</ele><time>2026-05-03T06:53:48Z</time></trkpt><trkpt lat="45.97724826240535" lon="11.415857041190627"><ele>1820.0</ele><time>2026-05-03T06:53:54Z</time></trkpt><trkpt lat="45.9773132100457" lon="11.415897691895687"><ele>1820.0</ele><time>2026-05-03T06:54:01Z</time></trkpt><trkpt lat="45.97736991109836" lon="11.41595010364332"><ele>1820.0</ele><time>2026-05-03T06:54:08Z</time></trkpt><trkpt lat="45.97743184679009" lon="11.415976816657222"><ele>1820.0</ele><time>2026-05-03T06:54:14Z</time></trkpt><trkpt lat="45.9774926940597" lon="11.416030818590077"><ele>1820.0</ele><time>2026-05-03T06:54:21Z</time></trkpt><trkpt lat="45.97755196951281" lon="11.416081968019382"><ele>1820.0</ele><time>2026-05-03T06:54:28Z</time></trkpt><trkpt lat="45.97760944009011" lon="11.416136597339928"><ele>1820.0</ele><time>2026-05-03T06:54:34Z</time></trkpt><trkpt lat="45.9776570411175" lon="11.416207545017262"><ele>1819.2857142857142</ele><time>2026-05-03T06:54:40Z</time></trkpt><trkpt lat="45.977710283818624" lon="11.41627752524009"><ele>1818.5714285714284</ele><time>2026-05-03T06:54:47Z</time></trkpt><trkpt lat="45.97775748954646" lon="11.416344448418881"><ele>1817.857142857143</ele><time>2026-05-03T06:54:54Z</time></trkpt><trkpt lat="45.97781435961621" lon="11.416404314024062"><ele>1817.142857142857</ele><time>2026-05-03T06:55:03Z</time></trkpt><trkpt lat="45.97785648811697" lon="11.416474073513639"><ele>1816.4285714285713</ele><time>2026-05-03T06:55:10Z</time></trkpt><trkpt lat="45.97790870897787" lon="11.416569178287945"><ele>1815.7142857142858</ele><time>2026-05-03T06:55:18Z</time></trkpt><trkpt lat="45.97794848044973" lon="11.416650677425544"><ele>1815.0</ele><time>2026-05-03T06:55:26Z</time></trkpt><trkpt lat="45.97798711335024" lon="11.416728541781172"><ele>1817.1428571428573</ele><time>2026-05-03T06:55:33Z</time></trkpt><trkpt lat="45.978055080031446" lon="11.416794839744053"><ele>1819.2857142857142</ele><time>2026-05-03T06:56:16Z</time></trkpt><trkpt lat="45.97810693043701" lon="11.416864152794073"><ele>1821.4285714285716</ele><time>2026-05-03T06:56:23Z</time></trkpt><trkpt lat="45.978148369018186" lon="11.416945528933669"><ele>1823.5714285714287</ele><time>2026-05-03T06:56:44Z</time></trkpt><trkpt lat="45.978195723290526" lon="11.417020608620712"><ele>1825.7142857142858</ele><time>2026-05-03T06:56:51Z</time></trkpt><trkpt lat="45.97824424877981" lon="11.417096385726142"><ele>1827.857142857143</ele><time>2026-05-03T06:56:57Z</time></trkpt><trkpt lat="45.97828797703336" lon="11.417179393486371"><ele>1830.0</ele><time>2026-05-03T06:57:03Z</time></trkpt><trkpt lat="45.97833613665709" lon="11.417241723758913"><ele>1831.1428571428573</ele><time>2026-05-03T06:57:10Z</time></trkpt><trkpt lat="45.978351038399204" lon="11.417335829091627"><ele>1832.2857142857144</ele><time>2026-05-03T06:57:16Z</time></trkpt><trkpt lat="45.97838815956739" lon="11.417424920527283"><ele>1833.4285714285716</ele><time>2026-05-03T06:57:22Z</time></trkpt><trkpt lat="45.97841038825851" lon="11.417512596080133"><ele>1834.5714285714284</ele><time>2026-05-03T06:57:28Z</time></trkpt><trkpt lat="45.97845368185021" lon="11.417605008208612"><ele>1835.7142857142856</ele><time>2026-05-03T06:57:35Z</time></trkpt><trkpt lat="45.97848558096906" lon="11.41768494580719"><ele>1836.8571428571427</ele><time>2026-05-03T06:57:41Z</time></trkpt><trkpt lat="45.97853209015019" lon="11.417752193020522"><ele>1838.0</ele><time>2026-05-03T06:57:46Z</time></trkpt><trkpt lat="45.978601222709344" lon="11.417780443391129"><ele>1838.0</ele><time>2026-05-03T06:57:51.001Z</time></trkpt><trkpt lat="45.97866869023925" lon="11.417801543629784"><ele>1837.9999999999998</ele><time>2026-05-03T06:57:56.001Z</time></trkpt><trkpt lat="45.978729336080356" lon="11.417857700936263"><ele>1838.0</ele><time>2026-05-03T06:58:02.001Z</time></trkpt><trkpt lat="45.97879608331417" lon="11.417885842988635"><ele>1838.0</ele><time>2026-05-03T06:58:08Z</time></trkpt><trkpt lat="45.9788700709777" lon="11.417872120303924"><ele>1837.9999999999998</ele><time>2026-05-03T06:58:14Z</time></trkpt><trkpt lat="45.978940405708464" lon="11.417893430217802"><ele>1838.0</ele><time>2026-05-03T06:58:20Z</time></trkpt><trkpt lat="45.979005923722255" lon="11.417916692823766"><ele>1838.0</ele><time>2026-05-03T06:58:26Z</time></trkpt><trkpt lat="45.97907614391001" lon="11.417934595463807"><ele>1838.0</ele><time>2026-05-03T06:58:32Z</time></trkpt><trkpt lat="45.97913933575353" lon="11.417927298082375"><ele>1837.9999999999998</ele><time>2026-05-03T06:58:37Z</time></trkpt><trkpt lat="45.979202939497426" lon="11.417911074508465"><ele>1838.0</ele><time>2026-05-03T06:58:42Z</time></trkpt><trkpt lat="45.979270215068425" lon="11.417874803203803"><ele>1838.0</ele><time>2026-05-03T06:58:48Z</time></trkpt><trkpt lat="45.97933567615438" lon="11.417859129183105"><ele>1837.9999999999998</ele><time>2026-05-03T06:58:56Z</time></trkpt><trkpt lat="45.97940343884316" lon="11.417862708978971"><ele>1838.0</ele><time>2026-05-03T06:59:04Z</time></trkpt><trkpt lat="45.979466491775646" lon="11.417853958549218"><ele>1838.0</ele><time>2026-05-03T06:59:11Z</time></trkpt><trkpt lat="45.97953375332415" lon="11.417814775943738"><ele>1840.7142857142856</ele><time>2026-05-03T06:59:23Z</time></trkpt><trkpt lat="45.97960462176428" lon="11.417777786158018"><ele>1843.428571428571</ele><time>2026-05-03T06:59:31Z</time></trkpt><trkpt lat="45.97966618007297" lon="11.417757834897795"><ele>1846.142857142857</ele><time>2026-05-03T06:59:39Z</time></trkpt><trkpt lat="45.979729514061646" lon="11.417715243993486"><ele>1848.8571428571427</ele><time>2026-05-03T06:59:48Z</time></trkpt><trkpt lat="45.97979287639666" lon="11.417681531911871"><ele>1851.5714285714284</ele><time>2026-05-03T06:59:55.001Z</time></trkpt><trkpt lat="45.97985278200097" lon="11.417647194460478"><ele>1854.2857142857142</ele><time>2026-05-03T07:00:01.001Z</time></trkpt><trkpt lat="45.97991605833938" lon="11.417619320343201"><ele>1857.0</ele><time>2026-05-03T07:00:09Z</time></trkpt><trkpt lat="45.97998026038053" lon="11.417614733002345"><ele>1857.0</ele><time>2026-05-03T07:00:18Z</time></trkpt><trkpt lat="45.97998477642161" lon="11.417707114161823"><ele>1857.0</ele><time>2026-05-03T07:01:16Z</time></trkpt><trkpt lat="45.97996331184322" lon="11.417802215630863"><ele>1857.0</ele><time>2026-05-03T07:01:25Z</time></trkpt><trkpt lat="45.979944919604776" lon="11.417888986846613"><ele>1857.0</ele><time>2026-05-03T07:01:34Z</time></trkpt><trkpt lat="45.97994003220075" lon="11.417990478548083"><ele>1857.0</ele><time>2026-05-03T07:01:42Z</time></trkpt><trkpt lat="45.979922506675734" lon="11.41809668452885"><ele>1857.0</ele><time>2026-05-03T07:01:49Z</time></trkpt><trkpt lat="45.97991387533645" lon="11.418199156029985"><ele>1857.0</ele><time>2026-05-03T07:02:00.001Z</time></trkpt><trkpt lat="45.97990210637281" lon="11.418288997042346"><ele>1859.1428571428573</ele><time>2026-05-03T07:02:07.001Z</time></trkpt><trkpt lat="45.979877509565405" lon="11.41837797991591"><ele>1861.2857142857142</ele><time>2026-05-03T07:02:14Z</time></trkpt><trkpt lat="45.97990234625512" lon="11.418463369412997"><ele>1863.4285714285716</ele><time>2026-05-03T07:02:21Z</time></trkpt><trkpt lat="45.97996957836672" lon="11.418479226759375"><ele>1865.5714285714287</ele><time>2026-05-03T07:02:29Z</time></trkpt><trkpt lat="45.98003464654609" lon="11.41846514835078"><ele>1867.7142857142858</ele><time>2026-05-03T07:02:37Z</time></trkpt><trkpt lat="45.98009376815545" lon="11.418421053045723"><ele>1869.857142857143</ele><time>2026-05-03T07:02:48Z</time></trkpt><trkpt lat="45.980139995525356" lon="11.418488424410365"><ele>1872.0</ele><time>2026-05-03T07:03:03Z</time></trkpt><trkpt lat="45.98016392506672" lon="11.418578828161206"><ele>1872.857142857143</ele><time>2026-05-03T07:03:11Z</time></trkpt><trkpt lat="45.980205340108064" lon="11.418656857378858"><ele>1873.7142857142858</ele><time>2026-05-03T07:03:20Z</time></trkpt><trkpt lat="45.98025679298179" lon="11.418731228243336"><ele>1874.5714285714287</ele><time>2026-05-03T07:03:33Z</time></trkpt><trkpt lat="45.98031609447264" lon="11.418768004824187"><ele>1875.4285714285716</ele><time>2026-05-03T07:03:41Z</time></trkpt><trkpt lat="45.980382963282615" lon="11.418780550545478"><ele>1876.2857142857142</ele><time>2026-05-03T07:03:51Z</time></trkpt><trkpt lat="45.98044630554904" lon="11.418762384170359"><ele>1877.1428571428573</ele><time>2026-05-03T07:03:58.999Z</time></trkpt><trkpt lat="45.980509284265516" lon="11.418770335868642"><ele>1878.0</ele><time>2026-05-03T07:04:08.001Z</time></trkpt><trkpt lat="45.980564057112645" lon="11.418814992990933"><ele>1882.2857142857142</ele><time>2026-05-03T07:04:23Z</time></trkpt><trkpt lat="45.98055541340004" lon="11.418907380232126"><ele>1886.5714285714284</ele><time>2026-05-03T07:04:32Z</time></trkpt><trkpt lat="45.98056731971533" lon="11.419004367572624"><ele>1890.8571428571427</ele><time>2026-05-03T07:04:42Z</time></trkpt><trkpt lat="45.98059390258803" lon="11.419104718055381"><ele>1895.142857142857</ele><time>2026-05-03T07:04:55Z</time></trkpt><trkpt lat="45.9806044117107" lon="11.419195798956974"><ele>1899.428571428571</ele><time>2026-05-03T07:05:08Z</time></trkpt><trkpt lat="45.980571125280186" lon="11.419274767731805"><ele>1903.7142857142856</ele><time>2026-05-03T07:05:20Z</time></trkpt><trkpt lat="45.98051426229613" lon="11.419316899843157"><ele>1908.0</ele><time>2026-05-03T07:05:30Z</time></trkpt><trkpt lat="45.980470185513404" lon="11.419406514781778"><ele>1908.0</ele><time>2026-05-03T07:05:38Z</time></trkpt><trkpt lat="45.98041342013833" lon="11.419456464169052"><ele>1907.9999999999998</ele><time>2026-05-03T07:05:45.999Z</time></trkpt><trkpt lat="45.98035657463727" lon="11.419495694998636"><ele>1908.0</ele><time>2026-05-03T07:05:52.999Z</time></trkpt><trkpt lat="45.980297256926875" lon="11.41955644610699"><ele>1908.0</ele><time>2026-05-03T07:06:01.999Z</time></trkpt><trkpt lat="45.980238277313674" lon="11.4195972628482"><ele>1907.9999999999998</ele><time>2026-05-03T07:06:11Z</time></trkpt><trkpt lat="45.98019113642771" lon="11.419661681435631"><ele>1908.0</ele><time>2026-05-03T07:06:19Z</time></trkpt><trkpt lat="45.980149126908906" lon="11.41973972086778"><ele>1908.0</ele><time>2026-05-03T07:06:28Z</time></trkpt><trkpt lat="45.980117097825215" lon="11.419824497461"><ele>1910.5714285714284</ele><time>2026-05-03T07:06:41Z</time></trkpt><trkpt lat="45.98009610015837" lon="11.41991646307956"><ele>1913.1428571428569</ele><time>2026-05-03T07:07:35Z</time></trkpt><trkpt lat="45.980083124488104" lon="11.420010403962277"><ele>1915.7142857142858</ele><time>2026-05-03T07:07:45.999Z</time></trkpt><trkpt lat="45.9800766815131" lon="11.420101897485315"><ele>1918.2857142857142</ele><time>2026-05-03T07:07:55.999Z</time></trkpt><trkpt lat="45.980078525352795" lon="11.420196728264473"><ele>1920.857142857143</ele><time>2026-05-03T07:08:08.999Z</time></trkpt><trkpt lat="45.98004548194076" lon="11.420287588201539"><ele>1923.4285714285716</ele><time>2026-05-03T07:08:21Z</time></trkpt><trkpt lat="45.980041573800186" lon="11.420390230034393"><ele>1926.0000000000002</ele><time>2026-05-03T07:08:34Z</time></trkpt><trkpt lat="45.980022239317336" lon="11.420490811352071"><ele>1929.571428571429</ele><time>2026-05-03T07:08:46Z</time></trkpt><trkpt lat="45.97997184126515" lon="11.420546370002857"><ele>1933.1428571428573</ele><time>2026-05-03T07:08:55Z</time></trkpt><trkpt lat="45.979934530890674" lon="11.42062652141222"><ele>1936.7142857142858</ele><time>2026-05-03T07:09:05Z</time></trkpt><trkpt lat="45.97989736173358" lon="11.420708064084211"><ele>1940.2857142857144</ele><time>2026-05-03T07:09:20Z</time></trkpt><trkpt lat="45.97987190813223" lon="11.420793305904146"><ele>1943.8571428571431</ele><time>2026-05-03T07:09:30.999Z</time></trkpt><trkpt lat="45.97986346590088" lon="11.420883080502344"><ele>1947.4285714285713</ele><time>2026-05-03T07:09:43.999Z</time></trkpt><trkpt lat="45.9798926791958" lon="11.420970581036064"><ele>1951.0</ele><time>2026-05-03T07:09:54.999Z</time></trkpt><trkpt lat="45.979935287464194" lon="11.42104044914937"><ele>1951.0</ele><time>2026-05-03T07:10:05.999Z</time></trkpt><trkpt lat="45.9799976395281" lon="11.4210672426035"><ele>1951.0</ele><time>2026-05-03T07:10:13.999Z</time></trkpt><trkpt lat="45.980055791456344" lon="11.421104272454315"><ele>1951.0</ele><time>2026-05-03T07:10:23Z</time></trkpt><trkpt lat="45.98010664814893" lon="11.421170113494927"><ele>1951.0</ele><time>2026-05-03T07:10:36Z</time></trkpt><trkpt lat="45.98015783591552" lon="11.421236945329095"><ele>1951.0</ele><time>2026-05-03T07:10:51Z</time></trkpt><trkpt lat="45.98011661452957" lon="11.421321437697564"><ele>1951.0</ele><time>2026-05-03T07:11:13Z</time></trkpt><trkpt lat="45.98010427231142" lon="11.421432115850408"><ele>1951.0</ele><time>2026-05-03T07:11:28Z</time></trkpt><trkpt lat="45.980112065548155" lon="11.421546631132077"><ele>1949.8571428571427</ele><time>2026-05-03T07:11:58.999Z</time></trkpt><trkpt lat="45.980058072606745" lon="11.42161801714792"><ele>1948.7142857142858</ele><time>2026-05-03T07:12:15.999Z</time></trkpt><trkpt lat="45.9800067758887" lon="11.421673197324633"><ele>1947.5714285714284</ele><time>2026-05-03T07:12:24.999Z</time></trkpt><trkpt lat="45.979963355818114" lon="11.421742500478016"><ele>1946.4285714285713</ele><time>2026-05-03T07:12:35Z</time></trkpt><trkpt lat="45.97990633982978" lon="11.421781174037852"><ele>1945.2857142857142</ele><time>2026-05-03T07:12:44Z</time></trkpt><trkpt lat="45.97984636820265" lon="11.421831999714703"><ele>1944.142857142857</ele><time>2026-05-03T07:12:55Z</time></trkpt><trkpt lat="45.97979117475322" lon="11.421877326641956"><ele>1943.0</ele><time>2026-05-03T07:13:02Z</time></trkpt><trkpt lat="45.97973306380161" lon="11.42192573206672"><ele>1978.0</ele><time>2026-05-03T07:13:13Z</time></trkpt><trkpt lat="45.97968635273649" lon="11.421990118933786"><ele>1978.0</ele><time>2026-05-03T07:13:22Z</time></trkpt><trkpt lat="45.979631278710826" lon="11.422034399332155"><ele>1978.0</ele><time>2026-05-03T07:13:34.999Z</time></trkpt><trkpt lat="45.97957273855452" lon="11.422090624682324"><ele>1978.0</ele><time>2026-05-03T07:13:43.999Z</time></trkpt><trkpt lat="45.979513984258745" lon="11.422125092710035"><ele>1978.0</ele><time>2026-05-03T07:13:53.999Z</time></trkpt><trkpt lat="45.97945167899758" lon="11.422158692646041"><ele>2004.0</ele><time>2026-05-03T07:14:04.999Z</time></trkpt><trkpt lat="45.97939210619445" lon="11.422191152151603"><ele>2004.0</ele><time>2026-05-03T07:14:13.999Z</time></trkpt></trkseg><trkseg><trkpt lat="45.98001048252299" lon="11.422942496730212"><ele>2004.0</ele><time>2026-05-03T07:37:01.001Z</time></trkpt><trkpt lat="45.97994908778847" lon="11.42285192321151"><ele>2004.0</ele><time>2026-05-03T07:37:25.001Z</time></trkpt><trkpt lat="45.97988434003262" lon="11.422807983328271"><ele>2004.0</ele><time>2026-05-03T07:37:32.001Z</time></trkpt><trkpt lat="45.979840973420835" lon="11.422730701499914"><ele>2004.0</ele><time>2026-05-03T07:37:43Z</time></trkpt><trkpt lat="45.979809785331405" lon="11.422651750577032"><ele>2004.0</ele><time>2026-05-03T07:37:53Z</time></trkpt><trkpt lat="45.97975773510375" lon="11.422600565579716"><ele>2004.0</ele><time>2026-05-03T07:37:59Z</time></trkpt><trkpt lat="45.97970255505814" lon="11.422556441447894"><ele>2004.0</ele><time>2026-05-03T07:38:19Z</time></trkpt><trkpt lat="45.979677866383085" lon="11.422467141902267"><ele>2004.0</ele><time>2026-05-03T07:38:28.001Z</time></trkpt><trkpt lat="45.9796258270684" lon="11.422413920446903"><ele>2004.0</ele><time>2026-05-03T07:38:39.001Z</time></trkpt><trkpt lat="45.979569532512095" lon="11.422358039113321"><ele>2004.0</ele><time>2026-05-03T07:38:48.001Z</time></trkpt><trkpt lat="45.97950746515936" lon="11.422311096386249"><ele>2004.0</ele><time>2026-05-03T07:38:58.001Z</time></trkpt><trkpt lat="45.97945088487234" lon="11.422257869880168"><ele>2004.0</ele><time>2026-05-03T07:39:04.001Z</time></trkpt><trkpt lat="45.97940070056727" lon="11.422198120992107"><ele>2004.0</ele><time>2026-05-03T07:39:11.001Z</time></trkpt><trkpt lat="45.979341862135506" lon="11.42215700855769"><ele>2004.0</ele><time>2026-05-03T07:39:18.001Z</time></trkpt><trkpt lat="45.97928012919084" lon="11.422125040437942"><ele>2000.2857142857142</ele><time>2026-05-03T07:39:39.001Z</time></trkpt><trkpt lat="45.97921643413135" lon="11.422116357198787"><ele>1996.5714285714284</ele><time>2026-05-03T07:39:44.001Z</time></trkpt><trkpt lat="45.979154035991755" lon="11.422096002972008"><ele>1992.8571428571427</ele><time>2026-05-03T07:39:52.001Z</time></trkpt><trkpt lat="45.97909672455611" lon="11.42205589698232"><ele>1989.142857142857</ele><time>2026-05-03T07:39:58.001Z</time></trkpt><trkpt lat="45.97903453452603" lon="11.422036117937644"><ele>1985.428571428571</ele><time>2026-05-03T07:40:03.001Z</time></trkpt><trkpt lat="45.978962995948535" lon="11.422016787068037"><ele>1981.7142857142856</ele><time>2026-05-03T07:40:12.001Z</time></trkpt><trkpt lat="45.978890965694454" lon="11.422001891100889"><ele>1978.0</ele><time>2026-05-03T07:40:19.001Z</time></trkpt><trkpt lat="45.97884642467264" lon="11.421929159363502"><ele>1977.7142857142856</ele><time>2026-05-03T07:40:28.001Z</time></trkpt><trkpt lat="45.97877823492629" lon="11.421905278770241"><ele>1977.428571428571</ele><time>2026-05-03T07:40:34.001Z</time></trkpt><trkpt lat="45.978711787664736" lon="11.421897368714758"><ele>1977.142857142857</ele><time>2026-05-03T07:40:40.001Z</time></trkpt><trkpt lat="45.978647959325244" lon="11.421863823323344"><ele>1976.8571428571427</ele><time>2026-05-03T07:40:48.001Z</time></trkpt><trkpt lat="45.97858675979646" lon="11.421832194983821"><ele>1976.5714285714284</ele><time>2026-05-03T07:40:55.001Z</time></trkpt><trkpt lat="45.978517282436" lon="11.421820352415594"><ele>1976.2857142857142</ele><time>2026-05-03T07:41:01.001Z</time></trkpt><trkpt lat="45.978444793865236" lon="11.421822531175488"><ele>1976.0</ele><time>2026-05-03T07:41:06.001Z</time></trkpt><trkpt lat="45.97838035262566" lon="11.421795359176265"><ele>1975.2857142857142</ele><time>2026-05-03T07:41:11.001Z</time></trkpt><trkpt lat="45.97831637924186" lon="11.421782406806285"><ele>1974.5714285714284</ele><time>2026-05-03T07:41:16.001Z</time></trkpt><trkpt lat="45.97824128327327" lon="11.421774323353464"><ele>1973.8571428571427</ele><time>2026-05-03T07:41:22.001Z</time></trkpt><trkpt lat="45.97817058063473" lon="11.421764504765752"><ele>1973.142857142857</ele><time>2026-05-03T07:41:28.001Z</time></trkpt><trkpt lat="45.978096429114885" lon="11.4217723963285"><ele>1972.428571428571</ele><time>2026-05-03T07:41:34.001Z</time></trkpt><trkpt lat="45.978032157032864" lon="11.421753587394202"><ele>1971.7142857142856</ele><time>2026-05-03T07:41:39.001Z</time></trkpt><trkpt lat="45.97796313380174" lon="11.421747789693516"><ele>1971.0</ele><time>2026-05-03T07:41:45.001Z</time></trkpt><trkpt lat="45.977895688555954" lon="11.421746069184898"><ele>1971.0</ele><time>2026-05-03T07:41:54.001Z</time></trkpt><trkpt lat="45.97783027732068" lon="11.421742137685248"><ele>1970.9999999999998</ele><time>2026-05-03T07:41:59.001Z</time></trkpt><trkpt lat="45.97776603062963" lon="11.421747071504763"><ele>1971.0</ele><time>2026-05-03T07:42:03.001Z</time></trkpt><trkpt lat="45.977698322970895" lon="11.421726663333667"><ele>1971.0</ele><time>2026-05-03T07:42:08.001Z</time></trkpt><trkpt lat="45.97762852377085" lon="11.42173684726434"><ele>1970.9999999999998</ele><time>2026-05-03T07:42:20.001Z</time></trkpt><trkpt lat="45.977565534534605" lon="11.421713171299348"><ele>1971.0</ele><time>2026-05-03T07:42:25.001Z</time></trkpt><trkpt lat="45.977489920373685" lon="11.421710345395386"><ele>1971.0</ele><time>2026-05-03T07:42:31.001Z</time></trkpt><trkpt lat="45.97742415407198" lon="11.421721523548552"><ele>1969.5714285714284</ele><time>2026-05-03T07:42:36.001Z</time></trkpt><trkpt lat="45.97735695116452" lon="11.421754295548428"><ele>1968.1428571428569</ele><time>2026-05-03T07:42:41.001Z</time></trkpt><trkpt lat="45.97728818221043" lon="11.421779017637151"><ele>1966.7142857142858</ele><time>2026-05-03T07:42:47.001Z</time></trkpt><trkpt lat="45.97723448911431" lon="11.421830636630643"><ele>1965.2857142857142</ele><time>2026-05-03T07:42:53.001Z</time></trkpt><trkpt lat="45.97716109662308" lon="11.421825450399442"><ele>1963.857142857143</ele><time>2026-05-03T07:43:00.001Z</time></trkpt><trkpt lat="45.97709038239319" lon="11.421796635437774"><ele>1962.4285714285716</ele><time>2026-05-03T07:43:06.001Z</time></trkpt><trkpt lat="45.97701848483527" lon="11.421767355640686"><ele>1961.0000000000002</ele><time>2026-05-03T07:43:35.001Z</time></trkpt><trkpt lat="45.976955196923456" lon="11.421769245476868"><ele>1961.0000000000002</ele><time>2026-05-03T07:43:41.001Z</time></trkpt><trkpt lat="45.976884964657636" lon="11.42179919842831"><ele>1961.0</ele><time>2026-05-03T07:43:56.001Z</time></trkpt><trkpt lat="45.97681075458463" lon="11.42180695497616"><ele>1961.0000000000002</ele><time>2026-05-03T07:44:01.001Z</time></trkpt><trkpt lat="45.97674060813337" lon="11.421812204697195"><ele>1961.0000000000002</ele><time>2026-05-03T07:44:06.001Z</time></trkpt><trkpt lat="45.9766700550548" lon="11.421819037341724"><ele>1961.0</ele><time>2026-05-03T07:44:11.001Z</time></trkpt><trkpt lat="45.976601349980875" lon="11.421819761329022"><ele>1961.0000000000002</ele><time>2026-05-03T07:44:16.001Z</time></trkpt><trkpt lat="45.9765357724125" lon="11.421814558226524"><ele>1961.0000000000002</ele><time>2026-05-03T07:44:21.001Z</time></trkpt><trkpt lat="45.976469521646116" lon="11.421831259941204"><ele>1959.1428571428573</ele><time>2026-05-03T07:44:26.001Z</time></trkpt><trkpt lat="45.97640139849206" lon="11.421828582882156"><ele>1957.2857142857142</ele><time>2026-05-03T07:44:31Z</time></trkpt><trkpt lat="45.976338780299415" lon="11.421840748113626"><ele>1955.4285714285716</ele><time>2026-05-03T07:44:36Z</time></trkpt><trkpt lat="45.97627464850489" lon="11.421873919476296"><ele>1953.5714285714287</ele><time>2026-05-03T07:44:41Z</time></trkpt><trkpt lat="45.97621649706332" lon="11.421913293499589"><ele>1951.7142857142858</ele><time>2026-05-03T07:44:45Z</time></trkpt><trkpt lat="45.97614679495893" lon="11.421930886170053"><ele>1949.857142857143</ele><time>2026-05-03T07:44:50Z</time></trkpt><trkpt lat="45.976081775312075" lon="11.42196084382807"><ele>1948.0</ele><time>2026-05-03T07:44:55Z</time></trkpt><trkpt lat="45.976010494828564" lon="11.42195771507488"><ele>1948.0</ele><time>2026-05-03T07:45:00Z</time></trkpt><trkpt lat="45.9759637753439" lon="11.422018726822307"><ele>1948.0</ele><time>2026-05-03T07:45:05Z</time></trkpt><trkpt lat="45.97589641554107" lon="11.422050206186944"><ele>1948.0</ele><time>2026-05-03T07:45:10Z</time></trkpt><trkpt lat="45.97582675877527" lon="11.422073476111478"><ele>1948.0</ele><time>2026-05-03T07:45:15Z</time></trkpt><trkpt lat="45.97575599523572" lon="11.42207049269488"><ele>1948.0</ele><time>2026-05-03T07:45:20Z</time></trkpt><trkpt lat="45.97568923567964" lon="11.422095014268207"><ele>1948.0</ele><time>2026-05-03T07:45:25.001Z</time></trkpt><trkpt lat="45.97562356141974" lon="11.422109204530571"><ele>1948.0</ele><time>2026-05-03T07:45:30.001Z</time></trkpt><trkpt lat="45.97555207375694" lon="11.42212934530364"><ele>1946.0</ele><time>2026-05-03T07:45:36.001Z</time></trkpt><trkpt lat="45.9754885866895" lon="11.422149428697264"><ele>1944.0</ele><time>2026-05-03T07:45:41.001Z</time></trkpt><trkpt lat="45.97542046471917" lon="11.422153277649832"><ele>1942.0</ele><time>2026-05-03T07:45:46.001Z</time></trkpt><trkpt lat="45.97534838988033" lon="11.422171776767648"><ele>1940.0</ele><time>2026-05-03T07:45:51.001Z</time></trkpt><trkpt lat="45.9752872878832" lon="11.422207939820003"><ele>1938.0</ele><time>2026-05-03T07:45:56.001Z</time></trkpt><trkpt lat="45.975225379470295" lon="11.422232655101801"><ele>1936.0</ele><time>2026-05-03T07:46:01.001Z</time></trkpt><trkpt lat="45.975151568024515" lon="11.422255147846602"><ele>1934.0</ele><time>2026-05-03T07:46:07Z</time></trkpt><trkpt lat="45.975096160414616" lon="11.422306467084821"><ele>1934.0</ele><time>2026-05-03T07:46:12Z</time></trkpt><trkpt lat="45.97502868245174" lon="11.422345857570082"><ele>1934.0</ele><time>2026-05-03T07:46:17Z</time></trkpt><trkpt lat="45.974972347985144" lon="11.422393156124043"><ele>1934.0</ele><time>2026-05-03T07:46:22Z</time></trkpt><trkpt lat="45.974911866511604" lon="11.42242540518892"><ele>1934.0</ele><time>2026-05-03T07:46:27Z</time></trkpt><trkpt lat="45.97484390465884" lon="11.422448282221149"><ele>1934.0</ele><time>2026-05-03T07:46:32Z</time></trkpt><trkpt lat="45.974779634209185" lon="11.422467101683782"><ele>1934.0</ele><time>2026-05-03T07:46:37Z</time></trkpt><trkpt lat="45.97471121270391" lon="11.422505595213535"><ele>1934.0</ele><time>2026-05-03T07:46:43Z</time></trkpt><trkpt lat="45.974648565246646" lon="11.422531570515492"><ele>1932.4285714285716</ele><time>2026-05-03T07:46:48Z</time></trkpt><trkpt lat="45.97457671103294" lon="11.422533296318601"><ele>1930.8571428571427</ele><time>2026-05-03T07:46:54Z</time></trkpt><trkpt lat="45.97451078025439" lon="11.42255050190543"><ele>1929.2857142857142</ele><time>2026-05-03T07:47:08Z</time></trkpt><trkpt lat="45.974443629045176" lon="11.422565455710657"><ele>1927.7142857142858</ele><time>2026-05-03T07:47:13Z</time></trkpt><trkpt lat="45.9743796018134" lon="11.422540581595324"><ele>1926.1428571428573</ele><time>2026-05-03T07:47:18Z</time></trkpt><trkpt lat="45.974307438394376" lon="11.422521916002356"><ele>1924.5714285714284</ele><time>2026-05-03T07:47:25Z</time></trkpt><trkpt lat="45.97423740490089" lon="11.422529707932506"><ele>1923.0</ele><time>2026-05-03T07:47:31.001Z</time></trkpt><trkpt lat="45.97416995862803" lon="11.422545077352718"><ele>1921.4285714285713</ele><time>2026-05-03T07:47:37.001Z</time></trkpt><trkpt lat="45.97410280154542" lon="11.422569815400358"><ele>1919.8571428571431</ele><time>2026-05-03T07:47:44.001Z</time></trkpt><trkpt lat="45.97403369252498" lon="11.422590617969831"><ele>1918.2857142857144</ele><time>2026-05-03T07:47:51.001Z</time></trkpt><trkpt lat="45.97396454488755" lon="11.422624529254445"><ele>1916.7142857142858</ele><time>2026-05-03T07:47:57Z</time></trkpt><trkpt lat="45.97389602040073" lon="11.422632100526531"><ele>1915.1428571428573</ele><time>2026-05-03T07:48:03Z</time></trkpt><trkpt lat="45.97382940499629" lon="11.422632100519897"><ele>1913.571428571429</ele><time>2026-05-03T07:48:08Z</time></trkpt><trkpt lat="45.97376259826428" lon="11.422629463369754"><ele>1912.0000000000002</ele><time>2026-05-03T07:48:13Z</time></trkpt><trkpt lat="45.97369991781095" lon="11.422603327278788"><ele>1912.0000000000002</ele><time>2026-05-03T07:48:18Z</time></trkpt><trkpt lat="45.97363328234502" lon="11.422558043507744"><ele>1912.0</ele><time>2026-05-03T07:48:25Z</time></trkpt><trkpt lat="45.973573964057984" lon="11.422504147957751"><ele>1912.0000000000002</ele><time>2026-05-03T07:48:31Z</time></trkpt><trkpt lat="45.97351505500967" lon="11.422463200003657"><ele>1912.0000000000002</ele><time>2026-05-03T07:48:37Z</time></trkpt><trkpt lat="45.97344968486946" lon="11.422472099547656"><ele>1912.0</ele><time>2026-05-03T07:48:44Z</time></trkpt><trkpt lat="45.973386057920976" lon="11.422472099562585"><ele>1912.0000000000002</ele><time>2026-05-03T07:48:52Z</time></trkpt><trkpt lat="45.97332335341146" lon="11.422455850951668"><ele>1912.0000000000002</ele><time>2026-05-03T07:49:02Z</time></trkpt><trkpt lat="45.97325638974465" lon="11.422444173061233"><ele>1909.0000000000002</ele><time>2026-05-03T07:49:09Z</time></trkpt><trkpt lat="45.97318963655908" lon="11.422442005293014"><ele>1906.0</ele><time>2026-05-03T07:49:17Z</time></trkpt><trkpt lat="45.97312922075623" lon="11.422469252784405"><ele>1903.0000000000002</ele><time>2026-05-03T07:49:24Z</time></trkpt><trkpt lat="45.97306465763016" lon="11.422499233299565"><ele>1900.0000000000002</ele><time>2026-05-03T07:49:32Z</time></trkpt><trkpt lat="45.97300420154362" lon="11.422526656913426"><ele>1897.0</ele><time>2026-05-03T07:49:41.001Z</time></trkpt><trkpt lat="45.97293508888928" lon="11.422554589774316"><ele>1894.0000000000002</ele><time>2026-05-03T07:49:48.001Z</time></trkpt><trkpt lat="45.972866215851745" lon="11.422573997545937"><ele>1891.0000000000002</ele><time>2026-05-03T07:49:57Z</time></trkpt><trkpt lat="45.972794829940675" lon="11.422582116833683"><ele>1891.0000000000002</ele><time>2026-05-03T07:50:05Z</time></trkpt><trkpt lat="45.97272962499479" lon="11.422571991679943"><ele>1891.0</ele><time>2026-05-03T07:50:21Z</time></trkpt><trkpt lat="45.972718118701806" lon="11.422482075155855"><ele>1891.0000000000002</ele><time>2026-05-03T07:50:39Z</time></trkpt><trkpt lat="45.97271779476597" lon="11.422384937068236"><ele>1891.0000000000002</ele><time>2026-05-03T07:50:47Z</time></trkpt><trkpt lat="45.97271311110882" lon="11.422293677148387"><ele>1891.0</ele><time>2026-05-03T07:50:55Z</time></trkpt><trkpt lat="45.972719843829495" lon="11.422197315583102"><ele>1891.0000000000002</ele><time>2026-05-03T07:51:04Z</time></trkpt><trkpt lat="45.97273942014717" lon="11.422103413616437"><ele>1891.0000000000002</ele><time>2026-05-03T07:51:12Z</time></trkpt><trkpt lat="45.97274930685863" lon="11.421999558163543"><ele>1888.8571428571431</ele><time>2026-05-03T07:51:20Z</time></trkpt><trkpt lat="45.97274978140062" lon="11.421908127917165"><ele>1886.7142857142858</ele><time>2026-05-03T07:51:28Z</time></trkpt><trkpt lat="45.972761817598055" lon="11.421813183183763"><ele>1884.5714285714287</ele><time>2026-05-03T07:51:35.999Z</time></trkpt><trkpt lat="45.97277101609257" lon="11.421721352885918"><ele>1882.4285714285716</ele><time>2026-05-03T07:51:43Z</time></trkpt><trkpt lat="45.9727690009918" lon="11.421628047198638"><ele>1880.2857142857142</ele><time>2026-05-03T07:52:05Z</time></trkpt><trkpt lat="45.9727984648041" lon="11.421545305856878"><ele>1878.142857142857</ele><time>2026-05-03T07:52:13Z</time></trkpt><trkpt lat="45.97281369796853" lon="11.421457092266653"><ele>1876.0</ele><time>2026-05-03T07:52:19Z</time></trkpt><trkpt lat="45.97283248711545" lon="11.421360562765102"><ele>1872.4285714285716</ele><time>2026-05-03T07:52:26Z</time></trkpt><trkpt lat="45.972844453188145" lon="11.421265408501307"><ele>1868.857142857143</ele><time>2026-05-03T07:52:35Z</time></trkpt><trkpt lat="45.97286390646317" lon="11.421172058892587"><ele>1865.2857142857142</ele><time>2026-05-03T07:52:44Z</time></trkpt><trkpt lat="45.97287724724913" lon="11.421075042211495"><ele>1861.7142857142858</ele><time>2026-05-03T07:53:57Z</time></trkpt><trkpt lat="45.972909362496914" lon="11.420987871767991"><ele>1858.1428571428573</ele><time>2026-05-03T07:54:03Z</time></trkpt><trkpt lat="45.97292113170737" lon="11.4208870505973"><ele>1854.5714285714287</ele><time>2026-05-03T07:54:11Z</time></trkpt><trkpt lat="45.97294879069383" lon="11.420797859163722"><ele>1851.0</ele><time>2026-05-03T07:54:18Z</time></trkpt><trkpt lat="45.97295420666781" lon="11.420702265036985"><ele>1851.0</ele><time>2026-05-03T07:54:27Z</time></trkpt><trkpt lat="45.9729652416112" lon="11.420597586370237"><ele>1851.0000000000002</ele><time>2026-05-03T07:54:34Z</time></trkpt><trkpt lat="45.972992632809586" lon="11.420513250506904"><ele>1851.0</ele><time>2026-05-03T07:54:40Z</time></trkpt><trkpt lat="45.973034250440435" lon="11.420432268524323"><ele>1851.0</ele><time>2026-05-03T07:54:57Z</time></trkpt><trkpt lat="45.97306826938978" lon="11.420353956208984"><ele>1851.0000000000002</ele><time>2026-05-03T07:55:04Z</time></trkpt><trkpt lat="45.97309910149525" lon="11.420261047782335"><ele>1851.0</ele><time>2026-05-03T07:55:12Z</time></trkpt><trkpt lat="45.97312812629852" lon="11.420164936160422"><ele>1851.0</ele><time>2026-05-03T07:55:17.999Z</time></trkpt><trkpt lat="45.97318506686356" lon="11.420106974781381"><ele>1850.0</ele><time>2026-05-03T07:55:22.999Z</time></trkpt><trkpt lat="45.97324495407334" lon="11.420069270398187"><ele>1849.0000000000002</ele><time>2026-05-03T07:55:26.999Z</time></trkpt><trkpt lat="45.973297392862804" lon="11.420011641558633"><ele>1848.0</ele><time>2026-05-03T07:55:31.999Z</time></trkpt><trkpt lat="45.973328845275105" lon="11.419925046792327"><ele>1847.0</ele><time>2026-05-03T07:55:37.999Z</time></trkpt><trkpt lat="45.973346328768706" lon="11.419836453526807"><ele>1846.0000000000002</ele><time>2026-05-03T07:55:43.999Z</time></trkpt><trkpt lat="45.97337163054585" lon="11.419738922154504"><ele>1845.0</ele><time>2026-05-03T07:55:49.999Z</time></trkpt><trkpt lat="45.97339578331785" lon="11.419641828616133"><ele>1844.0</ele><time>2026-05-03T07:55:56Z</time></trkpt><trkpt lat="45.97334032109157" lon="11.419575954338613"><ele>1840.5714285714287</ele><time>2026-05-03T07:56:01Z</time></trkpt><trkpt lat="45.97333728149852" lon="11.419478479977252"><ele>1837.1428571428573</ele><time>2026-05-03T07:56:09Z</time></trkpt><trkpt lat="45.97336718910455" lon="11.419396017948321"><ele>1833.7142857142858</ele><time>2026-05-03T07:56:16Z</time></trkpt><trkpt lat="45.97338771209556" lon="11.419308201427981"><ele>1830.2857142857142</ele><time>2026-05-03T07:56:25Z</time></trkpt><trkpt lat="45.973443042745224" lon="11.419261399235427"><ele>1826.857142857143</ele><time>2026-05-03T07:56:33Z</time></trkpt><trkpt lat="45.973504938587574" lon="11.419206408008527"><ele>1823.4285714285716</ele><time>2026-05-03T07:56:40Z</time></trkpt><trkpt lat="45.97356299205728" lon="11.419158849059357"><ele>1820.0</ele><time>2026-05-03T07:56:46Z</time></trkpt><trkpt lat="45.97361971695908" lon="11.419095085062015"><ele>1820.0</ele><time>2026-05-03T07:56:52Z</time></trkpt><trkpt lat="45.973637357116374" lon="11.418999301026247"><ele>1820.0</ele><time>2026-05-03T07:56:59Z</time></trkpt><trkpt lat="45.9736349049036" lon="11.418905025127236"><ele>1820.0</ele><time>2026-05-03T07:57:08Z</time></trkpt><trkpt lat="45.97362241952679" lon="11.418814249247523"><ele>1820.0</ele><time>2026-05-03T07:57:15Z</time></trkpt><trkpt lat="45.97360971689226" lon="11.418713468151681"><ele>1820.0</ele><time>2026-05-03T07:57:21.999Z</time></trkpt><trkpt lat="45.97359276297623" lon="11.418625831938924"><ele>1820.0</ele><time>2026-05-03T07:57:27.999Z</time></trkpt><trkpt lat="45.97356746216391" lon="11.41854176115413"><ele>1820.0</ele><time>2026-05-03T07:57:33.999Z</time></trkpt><trkpt lat="45.97352749236578" lon="11.418469292660923"><ele>1817.2857142857142</ele><time>2026-05-03T07:57:39.999Z</time></trkpt><trkpt lat="45.97348163835625" lon="11.41838288696767"><ele>1814.5714285714284</ele><time>2026-05-03T07:57:45.999Z</time></trkpt><trkpt lat="45.97342990149667" lon="11.418311990867938"><ele>1811.857142857143</ele><time>2026-05-03T07:57:50.999Z</time></trkpt><trkpt lat="45.97338861952274" lon="11.418230617809787"><ele>1809.142857142857</ele><time>2026-05-03T07:57:55.999Z</time></trkpt><trkpt lat="45.973326768215315" lon="11.418194321534752"><ele>1806.4285714285713</ele><time>2026-05-03T07:58:01Z</time></trkpt><trkpt lat="45.97327705069329" lon="11.418138441710935"><ele>1803.7142857142858</ele><time>2026-05-03T07:58:06Z</time></trkpt><trkpt lat="45.973207395463184" lon="11.418136184919192"><ele>1801.0</ele><time>2026-05-03T07:58:29Z</time></trkpt><trkpt lat="45.97314042088507" lon="11.418131610272196"><ele>1799.4285714285716</ele><time>2026-05-03T07:58:34Z</time></trkpt><trkpt lat="45.97306662367587" lon="11.418140003248224"><ele>1797.8571428571427</ele><time>2026-05-03T07:58:40Z</time></trkpt><trkpt lat="45.97299725105493" lon="11.418178703337237"><ele>1796.2857142857142</ele><time>2026-05-03T07:58:45Z</time></trkpt><trkpt lat="45.97293396766416" lon="11.41821323765976"><ele>1794.7142857142858</ele><time>2026-05-03T07:58:51Z</time></trkpt><trkpt lat="45.97286987043396" lon="11.418244209320422"><ele>1793.1428571428573</ele><time>2026-05-03T07:58:57Z</time></trkpt><trkpt lat="45.972816009304374" lon="11.41830089152896"><ele>1791.5714285714284</ele><time>2026-05-03T07:59:03Z</time></trkpt><trkpt lat="45.97274654405255" lon="11.418301421321964"><ele>1790.0</ele><time>2026-05-03T07:59:08Z</time></trkpt><trkpt lat="45.97268301605559" lon="11.418326499065563"><ele>1790.0</ele><time>2026-05-03T07:59:14Z</time></trkpt><trkpt lat="45.97262246905306" lon="11.418365638653505"><ele>1790.0</ele><time>2026-05-03T07:59:19Z</time></trkpt><trkpt lat="45.9725500011217" lon="11.418373386960344"><ele>1790.0</ele><time>2026-05-03T07:59:24.999Z</time></trkpt><trkpt lat="45.97248125453007" lon="11.418381323935488"><ele>1790.0</ele><time>2026-05-03T07:59:29.999Z</time></trkpt><trkpt lat="45.972413443548675" lon="11.418371067446026"><ele>1790.0</ele><time>2026-05-03T07:59:35.999Z</time></trkpt><trkpt lat="45.9723390548644" lon="11.418390478373784"><ele>1790.0</ele><time>2026-05-03T07:59:41.999Z</time></trkpt><trkpt lat="45.97227172616806" lon="11.418400589709128"><ele>1790.0</ele><time>2026-05-03T07:59:47.999Z</time></trkpt><trkpt lat="45.97220864970188" lon="11.41843189594445"><ele>1788.4285714285713</ele><time>2026-05-03T07:59:52.999Z</time></trkpt><trkpt lat="45.972134902827754" lon="11.418430088166186"><ele>1786.857142857143</ele><time>2026-05-03T07:59:58.999Z</time></trkpt><trkpt lat="45.97206744293135" lon="11.41844402773808"><ele>1785.2857142857142</ele><time>2026-05-03T08:00:04Z</time></trkpt><trkpt lat="45.97200246587071" lon="11.418463927200113"><ele>1783.7142857142858</ele><time>2026-05-03T08:00:09Z</time></trkpt><trkpt lat="45.97193500220485" lon="11.418485006726142"><ele>1782.1428571428573</ele><time>2026-05-03T08:00:14Z</time></trkpt><trkpt lat="45.97186362165482" lon="11.418512885026123"><ele>1780.5714285714287</ele><time>2026-05-03T08:00:19Z</time></trkpt><trkpt lat="45.97179406049291" lon="11.418507308724013"><ele>1779.0</ele><time>2026-05-03T08:00:24Z</time></trkpt><trkpt lat="45.971728447955066" lon="11.418471190923952"><ele>1776.7142857142858</ele><time>2026-05-03T08:00:30Z</time></trkpt><trkpt lat="45.971655382162126" lon="11.418447591038888"><ele>1774.4285714285716</ele><time>2026-05-03T08:00:35Z</time></trkpt><trkpt lat="45.97158300406279" lon="11.418432580467437"><ele>1772.142857142857</ele><time>2026-05-03T08:00:40Z</time></trkpt><trkpt lat="45.97152109227752" lon="11.418454355297435"><ele>1769.857142857143</ele><time>2026-05-03T08:00:47Z</time></trkpt><trkpt lat="45.97145570108398" lon="11.418472856924465"><ele>1767.5714285714284</ele><time>2026-05-03T08:00:54Z</time></trkpt><trkpt lat="45.97142570279775" lon="11.418375991759337"><ele>1765.2857142857142</ele><time>2026-05-03T08:01:19Z</time></trkpt><trkpt lat="45.97135616715801" lon="11.418343192416744"><ele>1763.0</ele><time>2026-05-03T08:01:27.999Z</time></trkpt><trkpt lat="45.97129185408832" lon="11.418311823394015"><ele>1763.0</ele><time>2026-05-03T08:01:35.999Z</time></trkpt><trkpt lat="45.97123206611936" lon="11.418271280566437"><ele>1763.0</ele><time>2026-05-03T08:01:45.999Z</time></trkpt><trkpt lat="45.971211142438804" lon="11.418182853676694"><ele>1763.0</ele><time>2026-05-03T08:01:55.999Z</time></trkpt></trkseg></trk></gpx>